Time;durP1;ratioP1;P1;durP2;ratioP2;P2;SDS_P1;SDS_P2;PMS_P1;PMS_P2;Temp;Humidity;BMP_temperature;BMP_pressure;BME280_temperature;BME280_humidity;BME280_pressure;Samples;Min_cycle;Max_cycle;Signal;HPM_P1;HPM_P2
2023/11/16 00:00:32;;;;;;;7.18;1.80;;;;;;;;;;5077897;28;20188;-61
2023/11/16 00:03:05;;;;;;;1.17;1.02;;;;;;;;;;5077046;28;20611;-60
2023/11/16 00:05:35;;;;;;;4.40;1.40;;;;;;;;;;5077128;28;20195;-61
2023/11/16 00:08:06;;;;;;;1.20;1.00;;;;;;;;;;5060807;28;20226;-61
2023/11/16 00:10:34;;;;;;;4.70;1.35;;;;;;;;;;5077659;28;20364;-61
2023/11/16 00:13:03;;;;;;;3.83;1.48;;;;;;;;;;5077568;28;20272;-60
2023/11/16 00:15:31;;;;;;;5.20;1.48;;;;;;;;;;5076127;28;20214;-60
2023/11/16 00:18:03;;;;;;;1.40;1.00;;;;;;;;;;5077125;28;20196;-60
2023/11/16 00:20:35;;;;;;;6.70;1.77;;;;;;;;;;5075432;28;20203;-61
2023/11/16 00:23:04;;;;;;;4.32;1.40;;;;;;;;;;5077115;28;20253;-62
2023/11/16 00:25:32;;;;;;;5.95;1.38;;;;;;;;;;5073275;28;20200;-62
2023/11/16 00:28:01;;;;;;;4.63;1.60;;;;;;;;;;5055529;28;20218;-62
2023/11/16 00:30:30;;;;;;;2.75;1.50;;;;;;;;;;5069894;28;20200;-62
2023/11/16 00:32:58;;;;;;;3.80;1.30;;;;;;;;;;5053906;28;20204;-62
2023/11/16 00:35:27;;;;;;;5.53;1.35;;;;;;;;;;5065754;28;20654;-62
2023/11/16 00:37:57;;;;;;;3.15;1.25;;;;;;;;;;5073423;28;20204;-62
2023/11/16 00:40:25;;;;;;;5.47;1.55;;;;;;;;;;5072435;28;20582;-62
2023/11/16 00:42:53;;;;;;;1.35;0.90;;;;;;;;;;5072707;28;20210;-61
2023/11/16 00:45:21;;;;;;;3.45;1.40;;;;;;;;;;5070782;28;20204;-61
2023/11/16 00:47:49;;;;;;;7.68;1.50;;;;;;;;;;5070899;28;20567;-62
2023/11/16 00:50:18;;;;;;;3.65;1.20;;;;;;;;;;5072039;28;20222;-61
2023/11/16 00:52:47;;;;;;;2.65;1.20;;;;;;;;;;5072583;28;20204;-61
2023/11/16 00:55:17;;;;;;;3.08;1.05;;;;;;;;;;5072658;28;20214;-61
2023/11/16 00:57:47;;;;;;;1.50;1.00;;;;;;;;;;5073132;28;20204;-61
2023/11/16 01:00:17;;;;;;;1.73;0.95;;;;;;;;;;5072295;28;20200;-62
2023/11/16 01:02:48;;;;;;;4.15;1.20;;;;;;;;;;5071333;28;20214;-61
2023/11/16 01:05:18;;;;;;;3.83;1.00;;;;;;;;;;5071365;28;20192;-62
2023/11/16 01:07:47;;;;;;;3.30;1.20;;;;;;;;;;5072654;28;20204;-62
2023/11/16 01:10:23;;;;;;;6.25;1.23;;;;;;;;;;5054087;28;20232;-62
2023/11/16 01:12:52;;;;;;;4.65;1.30;;;;;;;;;;5072572;28;20196;-62
2023/11/16 01:15:22;;;;;;;2.05;1.20;;;;;;;;;;5053087;28;20913;-61
2023/11/16 01:17:52;;;;;;;7.55;1.15;;;;;;;;;;5072666;28;20204;-62
2023/11/16 01:20:22;;;;;;;5.75;1.27;;;;;;;;;;5053395;28;20199;-61
2023/11/16 01:23:01;;;;;;;9.10;1.85;;;;;;;;;;5072329;28;20196;-62
2023/11/16 01:25:32;;;;;;;2.90;1.00;;;;;;;;;;5070168;28;20196;-61
2023/11/16 01:28:00;;;;;;;5.80;1.17;;;;;;;;;;5071609;28;20208;-62
2023/11/16 01:30:31;;;;;;;2.58;1.17;;;;;;;;;;5071430;28;20257;-62
2023/11/16 01:33:01;;;;;;;1.35;0.70;;;;;;;;;;5072123;28;20670;-61
2023/11/16 01:35:29;;;;;;;5.43;1.48;;;;;;;;;;5075315;28;20196;-65
2023/11/16 01:37:57;;;;;;;2.95;1.50;;;;;;;;;;5079742;28;20322;-64
2023/11/16 01:40:27;;;;;;;3.88;1.23;;;;;;;;;;5075992;28;20196;-61
2023/11/16 01:42:58;;;;;;;1.10;1.00;;;;;;;;;;5073776;28;20206;-62
2023/11/16 01:45:30;;;;;;;2.50;1.20;;;;;;;;;;5069282;28;20203;-62
2023/11/16 01:48:01;;;;;;;3.45;1.58;;;;;;;;;;5072079;28;20213;-62
2023/11/16 01:50:31;;;;;;;4.70;1.10;;;;;;;;;;5072493;28;20222;-62
2023/11/16 01:53:04;;;;;;;3.10;1.30;;;;;;;;;;5072529;28;20200;-62
2023/11/16 01:55:34;;;;;;;5.25;1.10;;;;;;;;;;5073059;28;20188;-62
2023/11/16 01:58:05;;;;;;;2.67;1.20;;;;;;;;;;5054914;28;20658;-62
2023/11/16 02:00:34;;;;;;;1.95;1.08;;;;;;;;;;5055718;28;20184;-62
2023/11/16 02:03:03;;;;;;;2.20;1.15;;;;;;;;;;5071182;28;20729;-62
2023/11/16 02:05:33;;;;;;;5.53;1.17;;;;;;;;;;5053045;28;20562;-62
2023/11/16 02:08:03;;;;;;;3.08;1.40;;;;;;;;;;5071982;28;20204;-62
2023/11/16 02:10:32;;;;;;;3.60;1.65;;;;;;;;;;5075110;28;20234;-65
2023/11/16 02:13:01;;;;;;;3.28;1.23;;;;;;;;;;5059806;28;20686;-65
2023/11/16 02:15:31;;;;;;;5.00;1.40;;;;;;;;;;5076247;28;20282;-65
2023/11/16 02:18:01;;;;;;;6.65;1.50;;;;;;;;;;5059159;28;20279;-64
2023/11/16 02:20:29;;;;;;;3.47;1.73;;;;;;;;;;5077825;28;20251;-65
2023/11/16 02:22:58;;;;;;;5.60;2.30;;;;;;;;;;5056313;28;20204;-62
2023/11/16 02:25:29;;;;;;;9.20;3.10;;;;;;;;;;5070804;28;20200;-61
2023/11/16 02:27:57;;;;;;;10.02;1.90;;;;;;;;;;5070208;28;20188;-62
2023/11/16 02:30:26;;;;;;;7.82;2.20;;;;;;;;;;5071325;28;20230;-62
2023/11/16 02:32:54;;;;;;;3.65;2.00;;;;;;;;;;5068571;28;20210;-61
2023/11/16 02:35:23;;;;;;;4.13;1.65;;;;;;;;;;5053740;28;20215;-62
2023/11/16 02:37:51;;;;;;;4.68;1.98;;;;;;;;;;5068364;28;20667;-62
2023/11/16 02:40:21;;;;;;;2.65;2.08;;;;;;;;;;5071261;28;20192;-62
2023/11/16 02:42:50;;;;;;;3.42;2.08;;;;;;;;;;5053104;28;20559;-61
2023/11/16 02:45:18;;;;;;;7.55;2.50;;;;;;;;;;5063073;28;20207;-61
2023/11/16 02:47:47;;;;;;;4.97;2.97;;;;;;;;;;5069620;28;20200;-62
2023/11/16 02:50:16;;;;;;;4.70;1.85;;;;;;;;;;5070552;28;20215;-62
2023/11/16 02:52:44;;;;;;;7.25;1.92;;;;;;;;;;5069690;28;20576;-62
2023/11/16 02:55:12;;;;;;;5.32;1.80;;;;;;;;;;5070830;28;20564;-62
2023/11/16 02:57:41;;;;;;;4.68;1.70;;;;;;;;;;5052127;28;20225;-62
2023/11/16 03:00:12;;;;;;;6.30;2.30;;;;;;;;;;5070842;28;20647;-62
2023/11/16 03:02:41;;;;;;;3.65;2.22;;;;;;;;;;5069385;28;20639;-62
2023/11/16 03:05:10;;;;;;;5.40;2.45;;;;;;;;;;5069387;28;20203;-62
2023/11/16 03:07:40;;;;;;;7.93;2.35;;;;;;;;;;5070160;28;20248;-62
2023/11/16 03:10:09;;;;;;;7.03;2.55;;;;;;;;;;5065395;28;20280;-62
2023/11/16 03:12:37;;;;;;;2.72;1.90;;;;;;;;;;5070133;28;20192;-62
2023/11/16 03:15:06;;;;;;;10.60;2.63;;;;;;;;;;5071050;28;20204;-62
2023/11/16 03:17:39;;;;;;;4.80;2.40;;;;;;;;;;5070943;28;20210;-62
2023/11/16 03:20:11;;;;;;;5.93;2.10;;;;;;;;;;5070069;28;20191;-62
2023/11/16 03:22:40;;;;;;;8.13;2.60;;;;;;;;;;5035443;28;20218;-63
2023/11/16 03:25:09;;;;;;;11.35;2.75;;;;;;;;;;5068838;28;20196;-62
2023/11/16 03:27:37;;;;;;;9.88;2.67;;;;;;;;;;5055652;28;20192;-63
2023/11/16 03:30:06;;;;;;;7.03;2.20;;;;;;;;;;5073122;28;20218;-63
2023/11/16 03:32:37;;;;;;;12.65;2.60;;;;;;;;;;5074070;28;20981;-62
2023/11/16 03:35:07;;;;;;;6.00;3.20;;;;;;;;;;5074251;28;20599;-62
2023/11/16 03:37:35;;;;;;;10.85;2.47;;;;;;;;;;5073839;28;20218;-62
2023/11/16 03:40:04;;;;;;;11.40;3.25;;;;;;;;;;5073627;28;20204;-62
2023/11/16 03:42:34;;;;;;;8.30;2.10;;;;;;;;;;5074664;28;20212;-62
2023/11/16 03:45:02;;;;;;;12.57;3.10;;;;;;;;;;5072770;28;20298;-62
2023/11/16 03:47:30;;;;;;;5.90;4.75;;;;;;;;;;5074210;28;20260;-62
2023/11/16 03:50:03;;;;;;;9.80;5.35;;;;;;;;;;5055644;28;20227;-62
2023/11/16 03:52:31;;;;;;;11.48;5.85;;;;;;;;;;5074514;28;20188;-62
2023/11/16 03:55:00;;;;;;;9.52;3.10;;;;;;;;;;5073374;28;20553;-62
2023/11/16 03:57:28;;;;;;;15.45;4.20;;;;;;;;;;5073942;28;20581;-62
2023/11/16 03:59:56;;;;;;;8.15;5.85;;;;;;;;;;5056198;28;20638;-62
2023/11/16 04:02:24;;;;;;;7.50;5.35;;;;;;;;;;5072900;28;20203;-63
2023/11/16 04:04:52;;;;;;;7.63;3.20;;;;;;;;;;5072964;28;20208;-62
2023/11/16 04:07:23;;;;;;;15.48;7.35;;;;;;;;;;5055613;28;20206;-62
2023/11/16 04:09:51;;;;;;;13.70;4.13;;;;;;;;;;5073642;28;20196;-62
2023/11/16 04:12:19;;;;;;;30.05;16.77;;;;;;;;;;5073228;28;20242;-63
2023/11/16 04:14:47;;;;;;;9.55;5.30;;;;;;;;;;5073428;28;20206;-62
2023/11/16 04:17:15;;;;;;;13.15;5.85;;;;;;;;;;5073888;28;20210;-63
2023/11/16 04:19:44;;;;;;;8.18;4.03;;;;;;;;;;5073752;28;20212;-62
2023/11/16 04:22:12;;;;;;;14.25;6.40;;;;;;;;;;5073533;28;20199;-62
2023/11/16 04:24:41;;;;;;;34.75;15.25;;;;;;;;;;5055879;28;20673;-62
2023/11/16 04:27:11;;;;;;;69.40;39.47;;;;;;;;;;5073730;28;20207;-62
2023/11/16 04:29:39;;;;;;;70.28;40.55;;;;;;;;;;5072919;28;20195;-61
2023/11/16 04:32:08;;;;;;;10.00;4.53;;;;;;;;;;5070805;28;20219;-62
2023/11/16 04:34:36;;;;;;;11.90;3.60;;;;;;;;;;5053457;28;20201;-63
2023/11/16 04:37:05;;;;;;;14.73;10.60;;;;;;;;;;5056546;28;20196;-62
2023/11/16 04:39:33;;;;;;;10.48;6.55;;;;;;;;;;5072592;28;20211;-62
2023/11/16 04:42:03;;;;;;;8.48;4.43;;;;;;;;;;5073271;28;20210;-62
2023/11/16 04:44:32;;;;;;;9.85;6.88;;;;;;;;;;5072090;28;20234;-62
2023/11/16 04:47:00;;;;;;;14.93;6.00;;;;;;;;;;5072624;28;20204;-63
2023/11/16 04:49:28;;;;;;;10.85;6.03;;;;;;;;;;5073204;28;20208;-62
2023/11/16 04:51:57;;;;;;;13.93;4.95;;;;;;;;;;5069164;28;20235;-62
2023/11/16 04:54:26;;;;;;;9.18;4.32;;;;;;;;;;5052677;28;20204;-62
2023/11/16 04:56:54;;;;;;;3.97;2.88;;;;;;;;;;5052994;28;20215;-62
2023/11/16 04:59:24;;;;;;;14.20;4.03;;;;;;;;;;5053011;28;20208;-62
2023/11/16 05:01:52;;;;;;;5.70;3.40;;;;;;;;;;5053004;28;20197;-62
2023/11/16 05:04:20;;;;;;;6.07;3.05;;;;;;;;;;5069521;28;20211;-62
2023/11/16 05:06:48;;;;;;;11.13;3.20;;;;;;;;;;5072464;28;20196;-62
2023/11/16 05:09:17;;;;;;;6.53;2.75;;;;;;;;;;5072602;28;20242;-62
2023/11/16 05:11:45;;;;;;;5.10;2.90;;;;;;;;;;5072663;28;20224;-62
2023/11/16 05:14:13;;;;;;;12.88;3.22;;;;;;;;;;5072434;28;20195;-63
2023/11/16 05:16:42;;;;;;;9.50;2.83;;;;;;;;;;5073045;28;20200;-62
2023/11/16 05:19:11;;;;;;;6.20;3.67;;;;;;;;;;5071247;28;20202;-63
2023/11/16 05:21:39;;;;;;;4.13;3.65;;;;;;;;;;5068483;28;20207;-62
2023/11/16 05:24:08;;;;;;;8.23;3.20;;;;;;;;;;5050600;28;20192;-63
2023/11/16 05:26:38;;;;;;;8.02;3.20;;;;;;;;;;5054655;28;20260;-63
2023/11/16 05:29:06;;;;;;;6.15;3.33;;;;;;;;;;5071399;28;20188;-63
2023/11/16 05:31:35;;;;;;;12.85;3.30;;;;;;;;;;5071676;28;20215;-62
2023/11/16 05:34:07;;;;;;;6.75;4.55;;;;;;;;;;5070008;28;20192;-62
2023/11/16 05:36:36;;;;;;;9.82;4.07;;;;;;;;;;5070720;28;20560;-62
2023/11/16 05:39:04;;;;;;;5.55;4.28;;;;;;;;;;5070659;28;20204;-62
2023/11/16 05:41:33;;;;;;;10.73;4.60;;;;;;;;;;5053813;28;20208;-62
2023/11/16 05:44:01;;;;;;;9.35;4.80;;;;;;;;;;5052797;28;20228;-62
2023/11/16 05:46:33;;;;;;;10.23;6.05;;;;;;;;;;5071153;28;20646;-62
2023/11/16 05:49:01;;;;;;;13.02;4.10;;;;;;;;;;5055224;28;20187;-62
2023/11/16 05:51:34;;;;;;;9.98;4.05;;;;;;;;;;5080643;28;20271;-65
2023/11/16 05:54:02;;;;;;;4.75;3.35;;;;;;;;;;5074552;28;20204;-61
2023/11/16 05:56:31;;;;;;;4.97;3.55;;;;;;;;;;5073828;28;20646;-62
2023/11/16 05:58:59;;;;;;;14.38;4.43;;;;;;;;;;5074285;28;20214;-61
2023/11/16 06:01:30;;;;;;;14.20;4.65;;;;;;;;;;5070566;28;20188;-64
2023/11/16 06:03:58;;;;;;;5.35;3.80;;;;;;;;;;5074177;28;20206;-64
2023/11/16 06:06:26;;;;;;;9.63;6.20;;;;;;;;;;5081448;28;20290;-65
2023/11/16 06:08:56;;;;;;;8.85;6.35;;;;;;;;;;5071854;28;20204;-62
2023/11/16 06:11:24;;;;;;;14.30;5.43;;;;;;;;;;5077667;28;20232;-65
2023/11/16 06:13:55;;;;;;;14.45;6.00;;;;;;;;;;5078704;28;20271;-65
2023/11/16 06:16:24;;;;;;;5.20;4.35;;;;;;;;;;5077609;28;20252;-65
2023/11/16 06:18:53;;;;;;;5.28;4.18;;;;;;;;;;5081433;28;20278;-65
2023/11/16 06:21:21;;;;;;;11.45;4.28;;;;;;;;;;5080431;28;20256;-64
2023/11/16 06:23:50;;;;;;;10.02;5.13;;;;;;;;;;5082719;28;20311;-65
2023/11/16 06:26:19;;;;;;;8.68;5.60;;;;;;;;;;5081719;28;20247;-65
2023/11/16 06:28:47;;;;;;;13.80;5.10;;;;;;;;;;5081993;28;20282;-64
2023/11/16 06:31:18;;;;;;;9.95;5.95;;;;;;;;;;5080580;28;20315;-64
2023/11/16 06:33:46;;;;;;;16.17;8.32;;;;;;;;;;5076271;28;20882;-64
2023/11/16 06:36:14;;;;;;;17.08;6.60;;;;;;;;;;5078669;28;20282;-65
2023/11/16 06:38:43;;;;;;;7.93;5.35;;;;;;;;;;5078325;28;20676;-65
2023/11/16 06:41:11;;;;;;;7.93;5.13;;;;;;;;;;5079818;28;20295;-66
2023/11/16 06:43:41;;;;;;;11.02;5.50;;;;;;;;;;5063711;28;20263;-63
2023/11/16 06:46:12;;;;;;;7.80;4.47;;;;;;;;;;5080807;28;20287;-66
2023/11/16 06:48:40;;;;;;;12.52;5.55;;;;;;;;;;5071844;28;20188;-64
2023/11/16 06:51:09;;;;;;;11.15;4.97;;;;;;;;;;5066963;28;20207;-64
2023/11/16 06:53:37;;;;;;;8.02;4.25;;;;;;;;;;5070560;28;20610;-65
2023/11/16 06:56:06;;;;;;;9.05;6.10;;;;;;;;;;5069742;28;20200;-65
2023/11/16 06:58:35;;;;;;;14.43;4.72;;;;;;;;;;5070225;28;20206;-65
2023/11/16 07:01:04;;;;;;;7.80;4.10;;;;;;;;;;5058795;28;20760;-66
2023/11/16 07:03:33;;;;;;;8.23;6.22;;;;;;;;;;5054175;28;20607;-66
2023/11/16 07:06:02;;;;;;;12.48;5.72;;;;;;;;;;5053590;28;20214;-65
2023/11/16 07:08:30;;;;;;;7.35;5.20;;;;;;;;;;5068000;28;20196;-65
2023/11/16 07:10:58;;;;;;;10.45;5.18;;;;;;;;;;5073538;28;20226;-65
2023/11/16 07:13:27;;;;;;;15.13;5.88;;;;;;;;;;5075130;28;20226;-66
2023/11/16 07:15:56;;;;;;;13.68;6.90;;;;;;;;;;5055835;28;20199;-65
2023/11/16 07:18:26;;;;;;;16.00;8.82;;;;;;;;;;5055373;28;20697;-67
2023/11/16 07:20:54;;;;;;;19.40;13.32;;;;;;;;;;5073913;28;20534;-66
2023/11/16 07:23:22;;;;;;;20.15;10.32;;;;;;;;;;5074095;28;20590;-67
2023/11/16 07:25:51;;;;;;;10.13;6.70;;;;;;;;;;5071792;28;20230;-65
2023/11/16 07:28:21;;;;;;;14.68;5.32;;;;;;;;;;5072130;28;20200;-66
2023/11/16 07:30:49;;;;;;;14.23;6.30;;;;;;;;;;5071379;28;20639;-67
2023/11/16 07:33:17;;;;;;;16.55;5.90;;;;;;;;;;5072899;28;20216;-67
2023/11/16 07:35:47;;;;;;;12.13;6.13;;;;;;;;;;5072826;28;20278;-68
2023/11/16 07:38:15;;;;;;;15.75;7.28;;;;;;;;;;5073770;28;20210;-67
2023/11/16 07:40:45;;;;;;;10.02;5.70;;;;;;;;;;5074169;28;20257;-67
2023/11/16 07:43:15;;;;;;;14.63;6.65;;;;;;;;;;5072716;28;20238;-67
2023/11/16 07:45:44;;;;;;;23.40;8.32;;;;;;;;;;5071363;28;20196;-66
2023/11/16 07:48:13;;;;;;;14.25;6.90;;;;;;;;;;5074129;28;20211;-67
2023/11/16 07:50:42;;;;;;;16.30;7.30;;;;;;;;;;5072117;28;20648;-68
2023/11/16 07:53:11;;;;;;;10.05;5.45;;;;;;;;;;5073070;28;21366;-66
2023/11/16 07:55:40;;;;;;;10.50;5.68;;;;;;;;;;5073770;28;20199;-67
2023/11/16 07:58:13;;;;;;;14.10;5.97;;;;;;;;;;5073103;28;20204;-67
2023/11/16 08:00:55;;;;;;;7.88;5.20;;;;;;;;;;5072927;28;20558;-66
2023/11/16 08:06:12;;;;;;;7.93;5.70;;;;;;;;;;5071891;28;20200;-66
2023/11/16 08:08:43;;;;;;;10.93;5.78;;;;;;;;;;5072421;28;20193;-66
2023/11/16 08:11:11;;;;;;;12.27;4.45;;;;;;;;;;5072127;28;20238;-65
2023/11/16 08:13:41;;;;;;;11.20;5.40;;;;;;;;;;5071892;28;20212;-66
2023/11/16 08:16:10;;;;;;;9.05;5.10;;;;;;;;;;5072440;28;20568;-66
2023/11/16 08:18:41;;;;;;;11.23;4.38;;;;;;;;;;5072276;28;20196;-66
2023/11/16 08:21:10;;;;;;;7.65;4.88;;;;;;;;;;5072478;28;20192;-66
2023/11/16 08:23:39;;;;;;;8.90;4.43;;;;;;;;;;5073484;28;20200;-67
2023/11/16 08:26:10;;;;;;;9.20;4.00;;;;;;;;;;5073127;28;20268;-66
2023/11/16 08:28:39;;;;;;;10.20;4.45;;;;;;;;;;5072795;28;20222;-64
2023/11/16 08:35:14;;;;;;;9.60;4.68;;;;;;;;;;5070219;28;20636;-66
2023/11/16 08:37:43;;;;;;;6.82;4.45;;;;;;;;;;5072589;28;20200;-66
2023/11/16 08:40:12;;;;;;;5.10;4.60;;;;;;;;;;5072321;28;20608;-67
2023/11/16 08:42:42;;;;;;;12.95;5.72;;;;;;;;;;5072866;28;20200;-66
2023/11/16 08:45:19;;;;;;;11.77;4.57;;;;;;;;;;5070807;28;20694;-67
2023/11/16 08:47:47;;;;;;;6.18;4.20;;;;;;;;;;5073226;28;20184;-66
2023/11/16 08:50:17;;;;;;;12.55;4.40;;;;;;;;;;5072003;28;20208;-65
2023/11/16 08:52:48;;;;;;;11.80;4.78;;;;;;;;;;5073127;28;20252;-66
2023/11/16 08:55:21;;;;;;;8.43;4.68;;;;;;;;;;5072469;28;20397;-66
2023/11/16 08:57:51;;;;;;;8.93;4.20;;;;;;;;;;5073030;28;20184;-66
2023/11/16 09:00:27;;;;;;;11.10;5.45;;;;;;;;;;5072142;28;20225;-66
2023/11/16 09:02:55;;;;;;;6.22;3.65;;;;;;;;;;5072174;28;20194;-65
2023/11/16 09:05:24;;;;;;;14.07;4.88;;;;;;;;;;5072367;28;20562;-69
2023/11/16 09:07:53;;;;;;;9.30;3.92;;;;;;;;;;5072681;28;20200;-68
2023/11/16 09:10:22;;;;;;;14.15;5.40;;;;;;;;;;5071842;28;20214;-68
2023/11/16 09:12:55;;;;;;;12.27;6.10;;;;;;;;;;5072418;28;20204;-67
2023/11/16 09:15:23;;;;;;;6.35;4.55;;;;;;;;;;5065282;28;20199;-66
2023/11/16 09:17:51;;;;;;;9.88;6.95;;;;;;;;;;5068521;28;20207;-67
2023/11/16 09:20:22;;;;;;;11.48;4.78;;;;;;;;;;5072074;28;20208;-67
2023/11/16 09:22:51;;;;;;;15.30;5.95;;;;;;;;;;5072466;28;20202;-68
2023/11/16 09:25:20;;;;;;;13.25;5.63;;;;;;;;;;5071216;28;20208;-68
2023/11/16 09:27:50;;;;;;;7.72;3.20;;;;;;;;;;5072087;28;20204;-67
2023/11/16 09:30:22;;;;;;;8.32;4.22;;;;;;;;;;5072002;28;20199;-67
2023/11/16 09:32:51;;;;;;;8.88;3.05;;;;;;;;;;5071909;28;20268;-68
2023/11/16 09:35:21;;;;;;;11.70;3.95;;;;;;;;;;5063831;28;20258;-67
2023/11/16 09:37:52;;;;;;;8.02;3.22;;;;;;;;;;5069660;28;20206;-62
2023/11/16 09:40:21;;;;;;;7.03;3.28;;;;;;;;;;5072165;28;20190;-64
2023/11/16 09:42:56;;;;;;;16.88;3.40;;;;;;;;;;5072514;28;20199;-64
2023/11/16 09:45:28;;;;;;;7.97;3.20;;;;;;;;;;5059376;28;20249;-65
2023/11/16 09:47:58;;;;;;;16.67;4.10;;;;;;;;;;5054276;28;20212;-64
2023/11/16 09:50:27;;;;;;;7.85;3.30;;;;;;;;;;5070040;28;20203;-64
2023/11/16 09:52:56;;;;;;;9.63;3.75;;;;;;;;;;5068011;28;20227;-64
2023/11/16 09:55:26;;;;;;;68.65;28.52;;;;;;;;;;5071618;28;20207;-64
2023/11/16 09:57:58;;;;;;;9.38;5.97;;;;;;;;;;5072399;28;20208;-64
2023/11/16 10:00:32;;;;;;;12.70;6.88;;;;;;;;;;5071741;28;20196;-64
2023/11/16 10:03:01;;;;;;;18.88;3.75;;;;;;;;;;5071243;28;20193;-64
2023/11/16 10:05:34;;;;;;;22.67;11.68;;;;;;;;;;5071621;28;20204;-63
2023/11/16 10:08:08;;;;;;;13.82;4.75;;;;;;;;;;5070647;28;20207;-64
2023/11/16 10:10:37;;;;;;;8.73;4.80;;;;;;;;;;5072087;28;20726;-64
2023/11/16 10:13:06;;;;;;;20.67;9.00;;;;;;;;;;5073145;28;20209;-64
2023/11/16 10:15:36;;;;;;;9.27;4.45;;;;;;;;;;5073175;28;20218;-63
2023/11/16 10:18:09;;;;;;;14.65;4.22;;;;;;;;;;5072493;28;20190;-63
2023/11/16 10:20:40;;;;;;;11.05;4.45;;;;;;;;;;5074514;28;20211;-64
2023/11/16 10:23:09;;;;;;;6.97;3.00;;;;;;;;;;5073566;28;20194;-64
2023/11/16 10:25:38;;;;;;;12.30;3.85;;;;;;;;;;5074608;28;20602;-64
2023/11/16 10:28:15;;;;;;;17.90;4.85;;;;;;;;;;5073976;28;20722;-63
2023/11/16 10:30:46;;;;;;;11.32;3.65;;;;;;;;;;5073149;28;20535;-63
2023/11/16 10:33:20;;;;;;;11.80;4.25;;;;;;;;;;5073307;28;20580;-63
2023/11/16 10:35:49;;;;;;;16.15;4.75;;;;;;;;;;5067871;28;20198;-64
2023/11/16 10:38:18;;;;;;;10.25;4.53;;;;;;;;;;5071514;28;20207;-63
2023/11/16 10:40:47;;;;;;;11.43;4.25;;;;;;;;;;5074112;28;20195;-63
2023/11/16 10:43:18;;;;;;;6.60;3.60;;;;;;;;;;5059377;28;20230;-63
2023/11/16 10:45:48;;;;;;;9.70;7.00;;;;;;;;;;5068355;28;20215;-63
2023/11/16 10:48:18;;;;;;;9.35;4.50;;;;;;;;;;5072287;28;20196;-62
2023/11/16 10:50:46;;;;;;;7.10;3.63;;;;;;;;;;5069885;28;20204;-66
2023/11/16 10:53:17;;;;;;;8.43;4.85;;;;;;;;;;5068787;28;20219;-65
2023/11/16 10:55:49;;;;;;;9.20;4.20;;;;;;;;;;5072504;28;20184;-66
2023/11/16 10:58:20;;;;;;;12.35;4.68;;;;;;;;;;5072164;28;20192;-66
2023/11/16 11:00:52;;;;;;;12.45;4.30;;;;;;;;;;5071551;28;20184;-65
2023/11/16 11:03:20;;;;;;;14.23;5.70;;;;;;;;;;5070848;28;20662;-65
2023/11/16 11:05:52;;;;;;;18.42;6.72;;;;;;;;;;5071777;28;20214;-66
2023/11/16 11:08:21;;;;;;;17.00;5.90;;;;;;;;;;5071945;28;20562;-65
2023/11/16 11:10:50;;;;;;;22.90;7.45;;;;;;;;;;5072857;28;20656;-66
2023/11/16 11:13:25;;;;;;;18.70;8.93;;;;;;;;;;5072676;28;20223;-65
2023/11/16 11:15:55;;;;;;;8.10;5.10;;;;;;;;;;5073420;28;20200;-66
2023/11/16 11:18:27;;;;;;;9.98;4.50;;;;;;;;;;5072414;28;20537;-65
2023/11/16 11:21:07;;;;;;;9.95;3.78;;;;;;;;;;5072184;28;20188;-66
2023/11/16 11:23:37;;;;;;;5.07;3.50;;;;;;;;;;5072358;28;20196;-65
2023/11/16 11:26:06;;;;;;;8.35;4.30;;;;;;;;;;5072967;28;20397;-65
2023/11/16 11:28:38;;;;;;;7.13;4.05;;;;;;;;;;5072261;28;20247;-66
2023/11/16 11:31:10;;;;;;;9.00;3.90;;;;;;;;;;5072543;28;20194;-66
2023/11/16 11:33:39;;;;;;;11.23;4.60;;;;;;;;;;5072070;28;20213;-66
2023/11/16 11:36:10;;;;;;;11.00;4.18;;;;;;;;;;5049128;28;20671;-65
2023/11/16 11:38:39;;;;;;;14.65;5.00;;;;;;;;;;5071317;28;20544;-65
2023/11/16 11:41:08;;;;;;;9.40;4.40;;;;;;;;;;5071380;28;20575;-65
2023/11/16 11:43:38;;;;;;;13.43;6.25;;;;;;;;;;5047723;28;20589;-65
2023/11/16 11:46:09;;;;;;;15.02;5.95;;;;;;;;;;5071649;28;20256;-65
2023/11/16 11:48:38;;;;;;;14.98;4.53;;;;;;;;;;5058020;28;20192;-65
2023/11/16 11:51:08;;;;;;;9.63;4.43;;;;;;;;;;5070629;28;20199;-64
2023/11/16 11:53:36;;;;;;;8.82;4.43;;;;;;;;;;5064706;28;20234;-64
2023/11/16 11:56:06;;;;;;;12.07;5.25;;;;;;;;;;5073144;28;20516;-66
2023/11/16 11:58:37;;;;;;;14.35;7.28;;;;;;;;;;5076695;28;20206;-66
2023/11/16 12:01:08;;;;;;;13.68;6.45;;;;;;;;;;5071501;28;20200;-65
2023/11/16 12:03:38;;;;;;;8.93;4.82;;;;;;;;;;5070840;28;20539;-65
2023/11/16 12:06:08;;;;;;;20.00;6.32;;;;;;;;;;5074161;28;20203;-65
2023/11/16 12:08:40;;;;;;;17.95;8.60;;;;;;;;;;5075075;28;20233;-65
2023/11/16 12:11:09;;;;;;;15.93;6.60;;;;;;;;;;5073596;28;20242;-66
2023/11/16 12:13:38;;;;;;;11.93;4.80;;;;;;;;;;5075077;28;20204;-64
2023/11/16 12:16:07;;;;;;;15.70;6.88;;;;;;;;;;5073871;28;20204;-66
2023/11/16 12:18:37;;;;;;;13.43;5.25;;;;;;;;;;5074730;28;20214;-65
2023/11/16 12:21:09;;;;;;;17.00;8.60;;;;;;;;;;5072987;28;20192;-65
2023/11/16 12:23:37;;;;;;;25.77;17.70;;;;;;;;;;5071559;28;20188;-66
2023/11/16 12:26:07;;;;;;;25.08;13.05;;;;;;;;;;5072388;28;20257;-65
2023/11/16 12:28:35;;;;;;;22.17;8.60;;;;;;;;;;5073164;28;20202;-66
2023/11/16 12:31:05;;;;;;;20.58;8.48;;;;;;;;;;5073310;28;20572;-65
2023/11/16 12:33:33;;;;;;;14.95;6.40;;;;;;;;;;5071355;28;20200;-66
2023/11/16 12:36:04;;;;;;;20.67;7.75;;;;;;;;;;5070924;28;20196;-65
2023/11/16 12:38:34;;;;;;;12.50;6.00;;;;;;;;;;5056271;28;20196;-66
2023/11/16 12:41:02;;;;;;;11.90;6.93;;;;;;;;;;5077577;28;20274;-66
2023/11/16 12:43:30;;;;;;;13.77;6.38;;;;;;;;;;5071706;28;20296;-66
2023/11/16 12:45:59;;;;;;;12.35;7.07;;;;;;;;;;5063823;28;20204;-66
2023/11/16 12:48:27;;;;;;;18.10;8.40;;;;;;;;;;5072823;28;20257;-66
2023/11/16 12:50:56;;;;;;;15.65;9.10;;;;;;;;;;5073038;28;21048;-66
2023/11/16 12:53:24;;;;;;;12.40;7.43;;;;;;;;;;5071948;28;20666;-66
2023/11/16 12:55:54;;;;;;;22.42;8.35;;;;;;;;;;5073029;28;20216;-66
2023/11/16 12:58:23;;;;;;;33.47;12.88;;;;;;;;;;5072359;28;20208;-66
2023/11/16 13:00:51;;;;;;;20.75;9.15;;;;;;;;;;5068367;28;20652;-66
2023/11/16 13:03:19;;;;;;;13.30;6.55;;;;;;;;;;5068715;28;20204;-66
2023/11/16 13:05:48;;;;;;;17.98;7.20;;;;;;;;;;5067842;28;20602;-66
2023/11/16 13:08:20;;;;;;;12.05;5.78;;;;;;;;;;5072079;28;20200;-65
2023/11/16 13:10:49;;;;;;;11.40;5.10;;;;;;;;;;5074195;28;20223;-66
2023/11/16 13:13:18;;;;;;;14.05;6.18;;;;;;;;;;5067924;28;20198;-66
2023/11/16 13:15:47;;;;;;;19.52;5.88;;;;;;;;;;5072070;28;20580;-66
2023/11/16 13:18:15;;;;;;;13.77;7.05;;;;;;;;;;5053967;28;20200;-66
2023/11/16 13:20:44;;;;;;;15.45;7.32;;;;;;;;;;5073010;28;20216;-66
2023/11/16 13:23:13;;;;;;;23.40;8.82;;;;;;;;;;5072668;28;20228;-66
2023/11/16 13:25:42;;;;;;;27.90;11.25;;;;;;;;;;5071610;28;20211;-66
2023/11/16 13:28:10;;;;;;;21.17;8.30;;;;;;;;;;5070868;28;20230;-66
2023/11/16 13:30:40;;;;;;;19.52;7.43;;;;;;;;;;5071889;28;20566;-66
2023/11/16 13:33:26;;;;;;;17.70;7.63;;;;;;;;;;5072222;28;20200;-66
2023/11/16 13:36:05;;;;;;;13.18;7.28;;;;;;;;;;5069615;28;20261;-66
2023/11/16 13:38:33;;;;;;;11.30;7.05;;;;;;;;;;5055587;28;20214;-66
2023/11/16 13:41:02;;;;;;;10.75;6.90;;;;;;;;;;5074358;28;20551;-66
2023/11/16 13:43:30;;;;;;;12.00;7.38;;;;;;;;;;5072249;28;20219;-66
2023/11/16 13:45:59;;;;;;;10.90;7.10;;;;;;;;;;5066067;28;20200;-66
2023/11/16 13:48:29;;;;;;;12.10;6.68;;;;;;;;;;5068443;28;20211;-66
2023/11/16 13:50:58;;;;;;;11.93;7.15;;;;;;;;;;5072643;28;20253;-66
2023/11/16 13:53:28;;;;;;;12.02;7.10;;;;;;;;;;5071539;28;20249;-66
2023/11/16 13:55:57;;;;;;;11.80;7.05;;;;;;;;;;5072166;28;20216;-66
2023/11/16 13:58:26;;;;;;;14.10;7.30;;;;;;;;;;5068770;28;20583;-66
2023/11/16 14:00:54;;;;;;;16.10;8.63;;;;;;;;;;5075890;28;20206;-66
2023/11/16 14:03:24;;;;;;;10.30;8.10;;;;;;;;;;5070553;28;20678;-65
2023/11/16 14:05:52;;;;;;;18.27;8.63;;;;;;;;;;5070431;28;20188;-66
2023/11/16 14:08:20;;;;;;;8.00;7.28;;;;;;;;;;5071328;28;20200;-65
2023/11/16 14:10:49;;;;;;;12.82;8.07;;;;;;;;;;5070473;28;20242;-66
2023/11/16 14:13:18;;;;;;;7.60;6.40;;;;;;;;;;5072675;28;20192;-66
2023/11/16 14:15:46;;;;;;;16.88;7.85;;;;;;;;;;5073858;28;20264;-66
2023/11/16 14:18:14;;;;;;;12.70;8.02;;;;;;;;;;5073167;28;20208;-66
2023/11/16 14:20:44;;;;;;;11.70;6.15;;;;;;;;;;5071616;28;20200;-66
2023/11/16 14:23:12;;;;;;;9.27;6.47;;;;;;;;;;5065768;28;20196;-66
2023/11/16 14:25:40;;;;;;;14.05;6.75;;;;;;;;;;5072607;28;20230;-66
2023/11/16 14:28:09;;;;;;;7.43;6.25;;;;;;;;;;5034661;28;20226;-66
2023/11/16 14:30:37;;;;;;;10.65;6.50;;;;;;;;;;5071198;28;20218;-66
2023/11/16 14:33:06;;;;;;;14.60;9.15;;;;;;;;;;5066148;28;20196;-66
2023/11/16 14:35:34;;;;;;;14.07;6.80;;;;;;;;;;5068205;28;20216;-66
2023/11/16 14:38:04;;;;;;;8.40;7.47;;;;;;;;;;5061568;28;20203;-66
2023/11/16 14:40:33;;;;;;;10.50;6.93;;;;;;;;;;5054452;28;20192;-66
2023/11/16 14:43:01;;;;;;;10.95;6.82;;;;;;;;;;5051790;28;20200;-65
2023/11/16 14:45:29;;;;;;;10.43;6.05;;;;;;;;;;5067220;28;20196;-64
2023/11/16 14:47:57;;;;;;;7.72;5.68;;;;;;;;;;5067696;28;20208;-65
2023/11/16 14:50:26;;;;;;;9.45;5.65;;;;;;;;;;5069200;28;20208;-65
2023/11/16 14:52:54;;;;;;;9.63;5.93;;;;;;;;;;5068538;28;20208;-66
2023/11/16 14:55:24;;;;;;;11.13;6.15;;;;;;;;;;5072926;28;20216;-65